Time;durP1;ratioP1;P1;durP2;ratioP2;P2;SDS_P1;SDS_P2;PMS_P1;PMS_P2;Temp;Humidity;BMP_temperature;BMP_pressure;BME280_temperature;BME280_humidity;BME280_pressure;Samples;Min_cycle;Max_cycle;Signal;HPM_P1;HPM_P2
2023/04/14 00:00:43;;;;;;;14.07;7.53;;;4.10;94.40;;;;;;5012038;28;20057;-92
2023/04/14 00:03:10;;;;;;;15.90;8.15;;;4.10;94.20;;;;;;5000237;28;20558;-93
2023/04/14 00:05:38;;;;;;;14.57;7.45;;;4.10;94.60;;;;;;5000563;28;20494;-92
2023/04/14 00:08:05;;;;;;;20.77;8.50;;;4.10;94.60;;;;;;5000092;28;20085;-93
2023/04/14 00:10:32;;;;;;;19.08;8.30;;;4.10;94.80;;;;;;5003448;28;20410;-93
2023/04/14 00:13:00;;;;;;;17.42;7.82;;;4.00;95.00;;;;;;5014310;28;20144;-92
2023/04/14 00:15:27;;;;;;;18.63;6.75;;;4.10;95.60;;;;;;4999051;28;20078;-93
2023/04/14 00:17:54;;;;;;;18.10;7.68;;;4.00;95.50;;;;;;5016176;28;20152;-93
2023/04/14 00:20:21;;;;;;;17.52;7.95;;;4.10;95.80;;;;;;5013268;28;20048;-92
2023/04/14 00:22:48;;;;;;;18.48;7.80;;;4.10;95.60;;;;;;5000373;28;20056;-93
2023/04/14 00:25:15;;;;;;;18.55;7.65;;;4.00;95.50;;;;;;5015367;28;20085;-94
2023/04/14 00:27:44;;;;;;;15.05;6.72;;;4.00;95.40;;;;;;4997785;28;20049;-93
2023/04/14 00:30:11;;;;;;;19.55;7.30;;;4.00;95.70;;;;;;5009023;22;20041;-92
2023/04/14 00:32:38;;;;;;;18.95;7.85;;;4.10;95.90;;;;;;5030054;28;20398;-92
2023/04/14 00:35:05;;;;;;;19.83;8.18;;;4.10;95.70;;;;;;5033626;28;20060;-93
2023/04/14 00:37:35;;;;;;;15.45;7.47;;;4.10;96.30;;;;;;5028537;28;20045;-92
2023/04/14 00:40:06;;;;;;;17.05;7.25;;;4.20;96.00;;;;;;5029767;28;20112;-93
2023/04/14 00:42:44;;;;;;;20.00;8.00;;;4.20;95.90;;;;;;5029352;28;20077;-93
2023/04/14 00:45:12;;;;;;;20.63;7.60;;;4.20;95.60;;;;;;5034036;28;20057;-93
2023/04/14 00:47:41;;;;;;;16.38;7.13;;;4.20;95.60;;;;;;5027005;28;20307;-93
2023/04/14 00:50:09;;;;;;;17.15;7.20;;;4.20;95.60;;;;;;5016102;28;20052;-93
2023/04/14 00:52:37;;;;;;;13.75;6.50;;;4.20;95.70;;;;;;5024685;28;20137;-93
2023/04/14 00:55:05;;;;;;;18.90;8.18;;;4.10;95.50;;;;;;5036745;28;20053;-93
2023/04/14 00:57:35;;;;;;;23.30;7.88;;;4.10;95.40;;;;;;5019724;28;20104;-93
2023/04/14 01:00:04;;;;;;;16.08;8.55;;;4.10;95.60;;;;;;5016661;28;20500;-92
2023/04/14 01:02:31;;;;;;;20.88;7.90;;;4.00;95.50;;;;;;5016515;28;20501;-93
2023/04/14 01:04:59;;;;;;;15.88;7.53;;;4.00;95.40;;;;;;5036643;28;20048;-93
2023/04/14 01:07:27;;;;;;;22.52;8.25;;;4.00;95.40;;;;;;5029944;28;20049;-93
2023/04/14 01:09:56;;;;;;;20.27;7.88;;;4.00;96.00;;;;;;5034476;28;20049;-94
2023/04/14 01:12:52;;;;;;;17.08;7.60;;;4.00;95.60;;;;;;5034647;28;20060;-93
2023/04/14 01:15:28;;;;;;;20.02;7.68;;;3.90;96.20;;;;;;5013920;28;20513;-94
2023/04/14 01:18:22;;;;;;;21.55;8.32;;;3.90;96.40;;;;;;4997664;28;20046;-93
2023/04/14 01:20:55;;;;;;;20.00;7.88;;;4.00;96.40;;;;;;4997478;28;20057;-93
2023/04/14 01:23:31;;;;;;;15.88;7.47;;;4.00;96.60;;;;;;4997499;28;20046;-93
2023/04/14 01:26:17;;;;;;;22.65;8.77;;;4.00;96.60;;;;;;5004917;28;20057;-93
2023/04/14 01:29:29;;;;;;;16.02;7.63;;;4.00;96.80;;;;;;5016182;28;20077;-93
2023/04/14 01:32:09;;;;;;;16.33;7.78;;;4.00;96.60;;;;;;5033421;28;20053;-92
2023/04/14 01:34:50;;;;;;;20.13;8.18;;;4.00;96.90;;;;;;5012050;28;20318;-88
2023/04/14 01:37:30;;;;;;;19.00;7.88;;;4.00;96.80;;;;;;5015208;28;20156;-87
2023/04/14 01:40:04;;;;;;;14.90;7.28;;;4.10;96.70;;;;;;5017024;28;20347;-87
2023/04/14 01:42:35;;;;;;;22.17;8.07;;;4.10;96.80;;;;;;5003915;28;20142;-87
2023/04/14 01:45:10;;;;;;;22.58;8.20;;;4.10;96.80;;;;;;5011451;28;20536;-87
2023/04/14 01:47:39;;;;;;;23.27;7.97;;;4.10;96.50;;;;;;5012189;28;20060;-87
2023/04/14 01:50:08;;;;;;;21.67;8.43;;;4.10;96.30;;;;;;5005583;28;20049;-87
2023/04/14 01:52:37;;;;;;;18.13;8.20;;;4.10;96.30;;;;;;5013017;28;20145;-87
2023/04/14 01:55:05;;;;;;;16.17;8.07;;;4.10;96.30;;;;;;5004252;28;20519;-87
2023/04/14 01:57:34;;;;;;;20.15;8.38;;;4.10;96.20;;;;;;5008976;28;20053;-89
2023/04/14 02:00:03;;;;;;;16.30;8.23;;;4.20;96.80;;;;;;5010917;28;20545;-90
2023/04/14 02:02:32;;;;;;;14.27;7.78;;;4.10;96.60;;;;;;5008767;28;20057;-90
2023/04/14 02:05:00;;;;;;;18.73;8.52;;;4.10;96.60;;;;;;5008269;28;20520;-89
2023/04/14 02:07:28;;;;;;;19.13;8.45;;;4.10;96.40;;;;;;5006813;28;20065;-89
2023/04/14 02:09:57;;;;;;;17.75;8.68;;;4.20;96.80;;;;;;5019879;28;20070;-88
2023/04/14 02:12:27;;;;;;;15.07;7.63;;;4.10;96.60;;;;;;5011959;28;20057;-89
2023/04/14 02:14:54;;;;;;;19.60;8.15;;;4.10;96.80;;;;;;5015777;28;20441;-89
2023/04/14 02:17:23;;;;;;;16.52;7.97;;;4.10;96.80;;;;;;5012239;28;20049;-87
2023/04/14 02:19:51;;;;;;;21.52;8.93;;;4.10;96.50;;;;;;5001915;28;20081;-88
2023/04/14 02:22:18;;;;;;;19.67;8.73;;;4.10;96.70;;;;;;5012689;28;20072;-88
2023/04/14 02:24:46;;;;;;;17.23;7.80;;;4.00;96.50;;;;;;5017409;28;20083;-87
2023/04/14 02:27:17;;;;;;;19.95;8.75;;;4.00;96.60;;;;;;5016383;28;20561;-87
2023/04/14 02:29:55;;;;;;;24.67;8.88;;;4.00;96.40;;;;;;5021699;28;20080;-87
2023/04/14 02:32:24;;;;;;;18.55;8.05;;;3.90;96.50;;;;;;5009508;28;20041;-88
2023/04/14 02:35:00;;;;;;;19.67;8.18;;;3.90;96.50;;;;;;5003600;28;20055;-87
2023/04/14 02:37:36;;;;;;;20.45;9.07;;;3.80;96.30;;;;;;5005761;28;20079;-87
2023/04/14 02:40:11;;;;;;;19.05;8.55;;;3.70;96.60;;;;;;5011805;28;20506;-87
2023/04/14 02:42:43;;;;;;;15.93;8.10;;;3.70;96.60;;;;;;5022224;28;20064;-87
2023/04/14 02:45:13;;;;;;;26.23;10.18;;;3.60;96.60;;;;;;5009935;28;20046;-93
2023/04/14 02:47:45;;;;;;;21.42;9.45;;;3.60;96.60;;;;;;5014762;28;20140;-92
2023/04/14 02:50:14;;;;;;;16.75;8.30;;;3.50;96.90;;;;;;5030098;28;20042;-93
2023/04/14 02:52:43;;;;;;;20.77;8.93;;;3.50;97.10;;;;;;5021678;28;20053;-93
2023/04/14 02:55:13;;;;;;;20.70;8.68;;;3.40;97.20;;;;;;5028134;28;20064;-92
2023/04/14 02:57:40;;;;;;;17.02;8.45;;;3.40;97.90;;;;;;5032156;28;20049;-93
2023/04/14 03:00:08;;;;;;;18.70;8.02;;;3.40;97.60;;;;;;5039510;28;20409;-93
2023/04/14 03:02:37;;;;;;;18.80;9.65;;;3.40;97.60;;;;;;5022508;28;20132;-93
2023/04/14 03:05:05;;;;;;;24.23;9.68;;;3.30;97.80;;;;;;5034403;28;20052;-93
2023/04/14 03:07:33;;;;;;;19.85;9.07;;;3.30;97.70;;;;;;5026801;28;20136;-93
2023/04/14 03:10:00;;;;;;;22.67;11.00;;;3.30;97.90;;;;;;5032827;28;20052;-92
2023/04/14 03:12:28;;;;;;;24.10;9.90;;;3.30;98.20;;;;;;5021922;28;20037;-92
2023/04/14 03:14:57;;;;;;;27.00;10.23;;;3.30;98.20;;;;;;5032422;28;20512;-94
2023/04/14 03:17:24;;;;;;;30.55;10.73;;;3.20;98.40;;;;;;5018653;28;20099;-92
2023/04/14 03:19:52;;;;;;;31.23;11.07;;;3.20;98.60;;;;;;5024414;28;20060;-94
2023/04/14 03:22:21;;;;;;;36.80;11.35;;;3.20;98.30;;;;;;5019772;28;20448;-94
2023/04/14 03:24:49;;;;;;;20.75;9.85;;;3.20;98.40;;;;;;5019336;28;20076;-93
2023/04/14 03:27:21;;;;;;;22.77;9.77;;;3.20;98.90;;;;;;5031946;28;20044;-93
2023/04/14 03:29:52;;;;;;;24.33;9.43;;;3.10;99.00;;;;;;5018884;28;20045;-93
2023/04/14 03:32:25;;;;;;;23.98;10.68;;;3.10;98.80;;;;;;5013507;28;20095;-93
2023/04/14 03:34:57;;;;;;;21.33;10.55;;;3.10;99.30;;;;;;5037877;28;20045;-93
2023/04/14 03:37:26;;;;;;;26.60;10.38;;;3.10;99.40;;;;;;5040015;28;20127;-94
2023/04/14 03:39:59;;;;;;;20.75;9.65;;;3.10;99.40;;;;;;5044465;28;20057;-95
2023/04/14 03:42:28;;;;;;;26.83;11.55;;;3.20;99.70;;;;;;5044157;28;20446;-94
2023/04/14 03:44:59;;;;;;;31.42;11.07;;;3.20;99.70;;;;;;5039294;28;20110;-94
2023/04/14 03:47:29;;;;;;;32.30;10.95;;;3.20;99.60;;;;;;5041655;28;20115;-94
2023/04/14 03:50:00;;;;;;;28.20;11.00;;;3.20;99.70;;;;;;5040528;28;20110;-95
2023/04/14 03:52:32;;;;;;;24.48;9.85;;;3.20;99.80;;;;;;5041290;28;20095;-94
2023/04/14 03:55:02;;;;;;;28.92;12.15;;;3.30;99.70;;;;;;5036393;28;20105;-94
2023/04/14 03:57:31;;;;;;;24.58;11.43;;;3.30;99.70;;;;;;5019259;28;20049;-94
2023/04/14 04:00:03;;;;;;;25.17;11.40;;;3.30;100.00;;;;;;5020119;28;20132;-94
2023/04/14 04:02:31;;;;;;;34.70;11.55;;;3.40;99.90;;;;;;5019395;28;20434;-94
2023/04/14 04:05:00;;;;;;;30.83;12.02;;;3.40;100.00;;;;;;5019523;28;20069;-94
2023/04/14 04:07:29;;;;;;;22.52;9.48;;;3.40;99.80;;;;;;5018802;28;20083;-93
2023/04/14 04:09:57;;;;;;;26.13;10.40;;;3.40;99.30;;;;;;5016140;28;20513;-93
2023/04/14 04:12:25;;;;;;;27.17;11.90;;;3.40;99.50;;;;;;5023648;28;20472;-93
2023/04/14 04:14:52;;;;;;;37.97;11.73;;;3.40;99.40;;;;;;5023080;28;20104;-92
2023/04/14 04:17:22;;;;;;;28.55;11.90;;;3.50;99.60;;;;;;5015383;28;20046;-93
2023/04/14 04:19:50;;;;;;;36.75;12.40;;;3.50;100.00;;;;;;5014328;28;20080;-92
2023/04/14 04:22:20;;;;;;;33.80;12.60;;;3.50;100.00;;;;;;5019141;28;20405;-92
2023/04/14 04:24:49;;;;;;;26.55;11.07;;;3.60;100.00;;;;;;5018241;28;20057;-93
2023/04/14 04:27:18;;;;;;;31.17;12.38;;;3.60;100.00;;;;;;5015934;28;20377;-91
2023/04/14 04:29:54;;;;;;;28.77;12.40;;;3.60;100.00;;;;;;5025741;28;20049;-92
2023/04/14 04:32:22;;;;;;;28.77;12.00;;;3.60;100.00;;;;;;5016555;28;20270;-92
2023/04/14 04:34:50;;;;;;;33.30;13.38;;;3.60;100.00;;;;;;5024979;28;20072;-93
2023/04/14 04:37:18;;;;;;;32.25;12.93;;;3.60;100.00;;;;;;5037512;28;20048;-94
2023/04/14 04:39:47;;;;;;;39.42;13.55;;;3.70;100.00;;;;;;5041129;28;20049;-94
2023/04/14 04:42:15;;;;;;;24.08;12.48;;;3.70;100.00;;;;;;5039641;28;20053;-94
2023/04/14 04:44:42;;;;;;;45.33;13.85;;;3.70;100.00;;;;;;5035549;28;20449;-92
2023/04/14 04:47:10;;;;;;;42.13;12.68;;;3.80;100.00;;;;;;5020245;28;20053;-92
2023/04/14 04:49:37;;;;;;;37.67;13.18;;;3.80;100.00;;;;;;5015870;28;20128;-92
2023/04/14 04:52:04;;;;;;;31.75;12.73;;;3.80;100.00;;;;;;5016366;28;20069;-92
2023/04/14 04:54:31;;;;;;;31.17;12.95;;;3.90;100.00;;;;;;5033099;28;20049;-94
2023/04/14 04:56:58;;;;;;;39.60;14.00;;;4.00;100.00;;;;;;5018269;28;20041;-93
2023/04/14 04:59:26;;;;;;;50.17;14.32;;;4.00;100.00;;;;;;5028633;28;20061;-94
2023/04/14 05:01:52;;;;;;;37.97;12.93;;;4.10;100.00;;;;;;5019730;28;20065;-93
2023/04/14 05:04:20;;;;;;;28.75;12.32;;;4.10;100.00;;;;;;5017332;28;20065;-93
2023/04/14 05:06:47;;;;;;;39.63;13.45;;;4.10;100.00;;;;;;5018094;28;20053;-93
2023/04/14 05:09:14;;;;;;;35.75;13.57;;;4.10;100.00;;;;;;5043126;28;20508;-95
2023/04/14 05:11:41;;;;;;;35.70;12.82;;;4.20;100.00;;;;;;5036903;28;20132;-95
2023/04/14 05:14:08;;;;;;;44.78;13.68;;;4.20;100.00;;;;;;5036826;28;20041;-95
2023/04/14 05:16:35;;;;;;;45.00;15.70;;;4.30;99.90;;;;;;5036241;28;20046;-95
2023/04/14 05:19:04;;;;;;;38.45;13.68;;;4.40;99.70;;;;;;5027729;28;20133;-93
2023/04/14 05:21:35;;;;;;;33.47;14.13;;;4.40;99.30;;;;;;5022763;28;20049;-96
2023/04/14 05:24:05;;;;;;;37.95;13.57;;;4.50;99.40;;;;;;5002903;28;20455;-94
2023/04/14 05:26:37;;;;;;;44.25;14.95;;;4.50;99.60;;;;;;5020823;28;20125;-93
2023/04/14 05:29:09;;;;;;;42.97;15.43;;;4.60;99.10;;;;;;5019674;28;20471;-93
2023/04/14 05:31:37;;;;;;;40.58;15.48;;;4.60;99.00;;;;;;5018727;28;20076;-93
2023/04/14 05:34:04;;;;;;;38.10;15.13;;;4.70;98.80;;;;;;5034990;28;20060;-92
2023/04/14 05:36:31;;;;;;;40.97;14.68;;;4.80;98.50;;;;;;5018060;28;20045;-93
2023/04/14 05:38:59;;;;;;;39.30;14.75;;;4.80;98.60;;;;;;5016688;28;20045;-93
2023/04/14 05:41:26;;;;;;;40.25;15.25;;;4.90;98.60;;;;;;5016817;28;20073;-92
2023/04/14 05:43:53;;;;;;;43.78;16.60;;;5.00;98.50;;;;;;5029173;28;20135;-94
2023/04/14 05:46:20;;;;;;;46.53;16.50;;;5.10;98.80;;;;;;5041020;28;20111;-93
2023/04/14 05:48:47;;;;;;;57.53;15.38;;;5.20;98.60;;;;;;5038848;28;20049;-95
2023/04/14 05:51:17;;;;;;;45.78;15.70;;;5.30;98.20;;;;;;5035331;28;20041;-94
2023/04/14 05:53:56;;;;;;;39.55;15.57;;;5.40;97.70;;;;;;5040622;28;20052;-94
2023/04/14 05:56:30;;;;;;;40.10;14.80;;;5.40;97.50;;;;;;5054641;28;20045;-95
2023/04/14 05:59:01;;;;;;;41.33;15.57;;;5.50;97.40;;;;;;5054512;28;20140;-96
2023/04/14 06:01:32;;;;;;;44.15;16.20;;;5.60;97.40;;;;;;5055328;28;20064;-96
2023/04/14 06:04:05;;;;;;;50.28;16.67;;;5.70;97.10;;;;;;5036645;28;20053;-96
2023/04/14 06:06:36;;;;;;;43.47;15.80;;;5.80;96.90;;;;;;5053188;28;20053;-96
2023/04/14 06:09:08;;;;;;;49.40;16.27;;;6.00;96.70;;;;;;5049858;28;20049;-95
2023/04/14 06:11:36;;;;;;;46.40;18.45;;;6.00;96.00;;;;;;5049705;28;20104;-96
2023/04/14 06:14:08;;;;;;;45.38;16.80;;;6.10;95.70;;;;;;5053898;28;20139;-96
2023/04/14 06:16:36;;;;;;;44.55;15.50;;;6.20;95.60;;;;;;5054542;28;20437;-96
2023/04/14 06:19:04;;;;;;;35.83;15.60;;;6.30;95.30;;;;;;5053938;28;20063;-96
2023/04/14 06:21:32;;;;;;;40.25;14.52;;;6.40;95.10;;;;;;5052624;28;20048;-96
2023/04/14 06:24:05;;;;;;;144.95;20.52;;;6.50;94.90;;;;;;5054278;28;20059;-94
2023/04/14 06:26:36;;;;;;;43.50;13.65;;;6.50;94.70;;;;;;5052276;28;20048;-95
2023/04/14 06:29:06;;;;;;;34.13;12.55;;;6.60;94.80;;;;;;5046998;28;20057;-96
2023/04/14 06:31:37;;;;;;;33.00;13.57;;;6.70;94.80;;;;;;5052007;28;20057;-95
2023/04/14 06:34:05;;;;;;;36.33;13.93;;;6.80;94.70;;;;;;5049461;28;20049;-95
2023/04/14 06:36:32;;;;;;;47.03;14.40;;;6.90;94.60;;;;;;5047376;28;20103;-96
2023/04/14 06:39:04;;;;;;;46.60;14.05;;;7.00;94.10;;;;;;5048264;28;20075;-96
2023/04/14 06:41:37;;;;;;;33.38;14.20;;;7.10;93.80;;;;;;5049924;28;20509;-96
2023/04/14 06:44:09;;;;;;;43.38;16.05;;;7.20;93.40;;;;;;5054156;28;20080;-96
2023/04/14 06:46:50;;;;;;;39.53;13.73;;;7.30;93.30;;;;;;5049853;28;20059;-95
2023/04/14 06:49:20;;;;;;;36.17;14.52;;;7.40;93.20;;;;;;5047063;28;20477;-96
2023/04/14 06:51:48;;;;;;;38.50;13.55;;;7.40;92.50;;;;;;5048957;28;20049;-94
2023/04/14 06:54:16;;;;;;;52.13;14.20;;;7.50;92.50;;;;;;5043707;28;20049;-93
2023/04/14 06:56:43;;;;;;;38.97;13.93;;;7.50;92.10;;;;;;5039902;28;20137;-95
2023/04/14 06:59:10;;;;;;;31.52;13.27;;;7.60;92.20;;;;;;5041231;28;20064;-94
2023/04/14 07:01:36;;;;;;;39.92;14.77;;;7.70;91.70;;;;;;5040789;28;20064;-94
2023/04/14 07:04:04;;;;;;;37.83;14.25;;;7.70;91.70;;;;;;5041947;28;20083;-95
2023/04/14 07:06:33;;;;;;;35.55;13.50;;;7.80;92.30;;;;;;5041423;28;20057;-94
2023/04/14 07:09:00;;;;;;;40.50;14.50;;;7.80;91.50;;;;;;5040183;28;20049;-95
2023/04/14 07:11:29;;;;;;;38.85;15.05;;;7.80;91.70;;;;;;5039987;28;20075;-93
2023/04/14 07:13:56;;;;;;;35.20;13.35;;;7.80;92.00;;;;;;5040945;28;20456;-94
2023/04/14 07:16:25;;;;;;;37.80;15.75;;;7.90;91.70;;;;;;5034015;28;20048;-93
2023/04/14 07:18:52;;;;;;;34.17;14.07;;;7.90;91.30;;;;;;5039069;28;20045;-93
2023/04/14 07:21:19;;;;;;;56.72;23.02;;;7.90;92.10;;;;;;5057716;28;20056;-93
2023/04/14 07:23:46;;;;;;;40.50;15.77;;;7.90;92.40;;;;;;5037700;28;20057;-92
2023/04/14 07:26:13;;;;;;;41.08;15.07;;;8.00;93.10;;;;;;5018122;28;20406;-94
2023/04/14 07:28:41;;;;;;;37.08;15.70;;;8.00;92.90;;;;;;5018955;28;20057;-92
2023/04/14 07:31:09;;;;;;;35.95;14.80;;;8.10;93.30;;;;;;5018178;28;20046;-93
2023/04/14 07:33:36;;;;;;;36.25;14.32;;;8.10;92.90;;;;;;5019721;28;20111;-94
2023/04/14 07:36:03;;;;;;;37.78;15.88;;;8.10;92.80;;;;;;5020132;28;20053;-91
2023/04/14 07:38:33;;;;;;;33.35;15.30;;;8.00;92.50;;;;;;5023462;28;20104;-94
2023/04/14 07:41:03;;;;;;;38.58;15.52;;;8.10;92.30;;;;;;5024210;28;20057;-95
2023/04/14 07:43:33;;;;;;;35.47;14.13;;;8.10;92.30;;;;;;5039105;28;20080;-94
2023/04/14 07:46:03;;;;;;;48.92;15.93;;;8.10;92.10;;;;;;5040276;28;20067;-94
2023/04/14 07:48:37;;;;;;;34.97;14.52;;;8.10;92.50;;;;;;5031236;28;20449;-94
2023/04/14 07:51:05;;;;;;;51.42;15.40;;;8.10;92.40;;;;;;5042559;28;20053;-94
2023/04/14 07:53:33;;;;;;;43.38;17.95;;;8.20;92.50;;;;;;5021909;28;20156;-94
2023/04/14 07:56:00;;;;;;;46.15;17.75;;;8.30;92.70;;;;;;5034050;28;20072;-94
2023/04/14 07:58:27;;;;;;;44.67;15.85;;;8.40;92.50;;;;;;5043912;28;20478;-94
2023/04/14 08:00:56;;;;;;;44.50;15.65;;;8.40;92.70;;;;;;5034232;28;20482;-95
2023/04/14 08:03:30;;;;;;;43.85;17.58;;;8.50;92.20;;;;;;5026167;28;20056;-93
2023/04/14 08:05:58;;;;;;;53.03;16.67;;;8.50;91.20;;;;;;5026197;28;20049;-95
2023/04/14 08:08:28;;;;;;;50.85;16.88;;;8.60;91.20;;;;;;5027973;28;20053;-95
2023/04/14 08:10:55;;;;;;;49.97;15.85;;;8.60;91.80;;;;;;5027321;28;20050;-95
2023/04/14 08:13:28;;;;;;;41.20;16.83;;;8.70;90.80;;;;;;5026771;28;20045;-96
2023/04/14 08:15:55;;;;;;;48.13;16.63;;;8.60;91.10;;;;;;5030753;28;20050;-95
2023/04/14 08:18:22;;;;;;;49.60;18.85;;;8.70;90.20;;;;;;5027366;28;20046;-95
2023/04/14 08:20:51;;;;;;;43.30;16.38;;;8.70;90.90;;;;;;5028877;28;20056;-96
2023/04/14 08:23:21;;;;;;;41.58;16.30;;;8.80;90.80;;;;;;5029580;28;20053;-95
2023/04/14 08:25:54;;;;;;;38.60;15.73;;;8.90;90.70;;;;;;5033201;28;20064;-95
2023/04/14 08:28:26;;;;;;;48.67;18.05;;;9.00;91.00;;;;;;5032592;28;20076;-95
2023/04/14 08:30:56;;;;;;;44.80;16.30;;;9.10;90.60;;;;;;5031850;28;20054;-95
2023/04/14 08:33:24;;;;;;;53.90;19.40;;;9.20;90.40;;;;;;5030825;28;20046;-95
2023/04/14 08:35:51;;;;;;;39.28;17.30;;;9.20;89.90;;;;;;5027964;28;20402;-95
2023/04/14 08:38:27;;;;;;;37.03;16.98;;;9.20;90.70;;;;;;5030840;28;20485;-95
2023/04/14 08:40:56;;;;;;;45.30;17.17;;;9.20;91.20;;;;;;5030249;28;20132;-94
2023/04/14 08:43:23;;;;;;;42.38;17.95;;;9.30;91.10;;;;;;5028787;28;20061;-94
2023/04/14 08:46:04;;;;;;;45.30;17.73;;;9.40;91.40;;;;;;5030294;28;20045;-95
2023/04/14 08:48:50;;;;;;;38.03;16.70;;;9.50;90.60;;;;;;5047160;28;20128;-95
2023/04/14 08:51:39;;;;;;;43.17;16.55;;;9.60;90.30;;;;;;5048120;28;20046;-94
2023/04/14 08:54:11;;;;;;;38.65;17.33;;;9.60;90.60;;;;;;5026922;28;20108;-94
2023/04/14 08:56:41;;;;;;;38.45;16.70;;;9.60;90.20;;;;;;5020678;28;20045;-92
2023/04/14 08:59:10;;;;;;;47.90;17.58;;;9.60;91.40;;;;;;5022712;28;20128;-94
2023/04/14 09:01:41;;;;;;;37.17;16.88;;;9.80;91.50;;;;;;5034800;28;20053;-94
2023/04/14 09:04:13;;;;;;;35.40;15.73;;;9.80;91.30;;;;;;5022554;28;20313;-92
2023/04/14 09:06:40;;;;;;;37.33;16.58;;;9.80;91.20;;;;;;5020511;28;20103;-93
2023/04/14 09:09:07;;;;;;;39.60;16.92;;;9.80;91.00;;;;;;5028120;28;20053;-92
2023/04/14 09:11:36;;;;;;;43.17;18.73;;;9.80;91.10;;;;;;5021370;28;20140;-92
2023/04/14 09:14:03;;;;;;;37.83;16.92;;;9.70;91.80;;;;;;5010487;28;20041;-93
2023/04/14 09:16:31;;;;;;;40.72;17.45;;;9.70;92.70;;;;;;5029064;28;20051;-93
2023/04/14 09:19:00;;;;;;;41.92;16.33;;;9.70;91.80;;;;;;5017541;28;20057;-92
2023/04/14 09:21:34;;;;;;;41.67;17.27;;;9.60;92.40;;;;;;4993538;28;20444;-92
2023/04/14 09:24:28;;;;;;;39.95;16.70;;;9.60;93.20;;;;;;5026817;28;20131;-92
2023/04/14 09:27:03;;;;;;;39.78;17.15;;;9.60;93.00;;;;;;5023915;28;20057;-92
2023/04/14 09:29:32;;;;;;;31.88;16.08;;;9.60;93.60;;;;;;5026696;28;20059;-93
2023/04/14 09:31:59;;;;;;;37.55;17.05;;;9.40;94.60;;;;;;5018074;28;20128;-93
2023/04/14 09:34:26;;;;;;;36.78;17.27;;;9.40;94.70;;;;;;5017044;28;20056;-92
2023/04/14 09:37:05;;;;;;;51.45;18.45;;;9.30;94.60;;;;;;5027014;28;20099;-95
2023/04/14 09:39:49;;;;;;;44.63;18.35;;;9.20;96.20;;;;;;5038259;28;20048;-95
2023/04/14 09:42:48;;;;;;;48.08;18.33;;;9.00;96.80;;;;;;5051931;28;20053;-95
2023/04/14 09:45:43;;;;;;;45.67;18.30;;;9.10;98.40;;;;;;5066736;28;20049;-93
2023/04/14 09:48:15;;;;;;;44.90;18.45;;;9.00;97.30;;;;;;5039299;28;20049;-95
2023/04/14 09:50:57;;;;;;;45.35;16.75;;;8.90;97.80;;;;;;5043571;28;20444;-95
2023/04/14 09:53:33;;;;;;;49.70;18.55;;;9.00;98.70;;;;;;5042131;28;20112;-95
2023/04/14 09:56:05;;;;;;;54.45;18.23;;;9.10;99.70;;;;;;5041483;28;20045;-95
2023/04/14 09:58:37;;;;;;;48.42;18.95;;;9.30;98.90;;;;;;5043409;28;20056;-95
2023/04/14 10:01:15;;;;;;;51.10;19.08;;;9.40;99.10;;;;;;5043624;28;20055;-94
2023/04/14 10:03:46;;;;;;;44.00;18.00;;;9.40;99.60;;;;;;5041114;28;20057;-95
2023/04/14 10:06:21;;;;;;;42.03;19.05;;;9.50;98.20;;;;;;5025886;28;20087;-95
2023/04/14 10:08:50;;;;;;;45.35;19.45;;;9.30;97.50;;;;;;5021093;28;20053;-94
2023/04/14 10:11:26;;;;;;;49.95;19.98;;;9.20;98.50;;;;;;5043546;28;20045;-95
2023/04/14 10:13:55;;;;;;;50.33;19.20;;;9.30;100.00;;;;;;5041023;28;20052;-95
2023/04/14 10:16:23;;;;;;;46.53;19.63;;;9.40;100.00;;;;;;5040670;28;20080;-95
2023/04/14 10:18:51;;;;;;;42.33;18.00;;;9.50;100.00;;;;;;5061100;28;20052;-95
2023/04/14 10:21:23;;;;;;;36.05;16.80;;;9.50;99.90;;;;;;5057509;28;20060;-94
2023/04/14 10:23:51;;;;;;;45.10;18.13;;;9.60;99.60;;;;;;5061306;28;20043;-95
2023/04/14 10:26:18;;;;;;;44.90;16.90;;;9.70;100.00;;;;;;5061343;28;20055;-94
2023/04/14 10:28:50;;;;;;;38.65;16.38;;;9.70;98.40;;;;;;5047846;28;20056;-94
2023/04/14 10:31:28;;;;;;;45.83;17.10;;;9.70;99.10;;;;;;5058514;28;20029;-93
2023/04/14 10:33:55;;;;;;;41.70;17.75;;;9.70;98.60;;;;;;5060099;28;20120;-94
2023/04/14 10:36:27;;;;;;;57.97;19.80;;;9.80;99.10;;;;;;5074389;28;20055;-93
2023/04/14 10:39:03;;;;;;;37.03;17.88;;;9.80;98.60;;;;;;5060330;28;20055;-94
2023/04/14 10:41:46;;;;;;;37.35;17.08;;;9.70;97.70;;;;;;5046357;28;20083;-92
2023/04/14 10:44:27;;;;;;;47.10;19.15;;;9.60;97.50;;;;;;5048990;28;20479;-94
2023/04/14 10:46:55;;;;;;;49.38;19.83;;;9.60;98.60;;;;;;5034168;28;20046;-94
2023/04/14 10:49:37;;;;;;;52.90;19.83;;;9.60;98.80;;;;;;5037116;28;20494;-94
2023/04/14 10:52:13;;;;;;;43.95;19.17;;;9.70;98.90;;;;;;5019308;28;20056;-94
2023/04/14 10:55:06;;;;;;;57.15;20.27;;;9.70;98.50;;;;;;5019526;28;20467;-94
2023/04/14 10:57:41;;;;;;;52.20;21.35;;;9.60;98.30;;;;;;5038624;28;20083;-96
2023/04/14 11:00:30;;;;;;;99.10;27.10;;;9.60;98.90;;;;;;5036336;28;20057;-96
2023/04/14 11:02:57;;;;;;;77.93;24.48;;;9.50;98.00;;;;;;5040496;28;20052;-95
2023/04/14 11:05:25;;;;;;;44.58;20.15;;;9.50;99.70;;;;;;5041517;28;20075;-94
2023/04/14 11:07:57;;;;;;;98.70;26.45;;;9.50;99.40;;;;;;5021761;28;20099;-93
2023/04/14 11:10:32;;;;;;;45.10;19.40;;;9.60;100.00;;;;;;5037230;28;20049;-95
2023/04/14 11:13:07;;;;;;;64.85;20.13;;;9.60;99.30;;;;;;5004016;28;20056;-95
2023/04/14 11:15:47;;;;;;;45.67;20.52;;;9.60;100.00;;;;;;5025252;28;20053;-95
2023/04/14 11:18:31;;;;;;;50.95;19.90;;;9.60;100.00;;;;;;5020612;28;20049;-95
2023/04/14 11:21:08;;;;;;;47.38;19.40;;;9.30;98.60;;;;;;5019096;28;20452;-95
2023/04/14 11:23:36;;;;;;;45.67;18.05;;;9.20;98.90;;;;;;5034595;28;20049;-94
2023/04/14 11:26:10;;;;;;;43.90;18.25;;;9.20;100.00;;;;;;5037889;28;20691;-94
2023/04/14 11:28:40;;;;;;;48.17;19.30;;;9.30;100.00;;;;;;5027630;28;20139;-94
2023/04/14 11:31:09;;;;;;;55.30;20.30;;;9.40;100.00;;;;;;5018493;28;20057;-92
2023/04/14 11:33:38;;;;;;;53.28;21.20;;;9.40;100.00;;;;;;5031731;28;20057;-92
2023/04/14 11:36:06;;;;;;;51.88;20.77;;;9.40;100.00;;;;;;5018013;28;20045;-92
2023/04/14 11:38:34;;;;;;;48.83;19.83;;;9.30;100.00;;;;;;5022721;28;20485;-92
2023/04/14 11:41:02;;;;;;;59.25;21.20;;;9.40;100.00;;;;;;5019050;28;20046;-93
2023/04/14 11:43:29;;;;;;;52.95;19.88;;;9.40;100.00;;;;;;5017922;28;20474;-92
2023/04/14 11:45:57;;;;;;;42.97;17.27;;;9.50;100.00;;;;;;5012349;28;20765;-92
2023/04/14 11:48:27;;;;;;;34.90;13.50;;;9.50;100.00;;;;;;5008430;28;20045;-93
2023/04/14 11:50:55;;;;;;;30.55;11.38;;;9.40;99.60;;;;;;5012716;28;20052;-92
2023/04/14 11:53:22;;;;;;;18.63;9.20;;;9.40;98.90;;;;;;5014637;28;20315;-92
2023/04/14 11:55:52;;;;;;;18.67;9.80;;;9.20;95.70;;;;;;5009874;28;20050;-93
2023/04/14 11:58:26;;;;;;;23.55;9.60;;;9.30;98.90;;;;;;5038940;28;20686;-93
2023/04/14 12:00:53;;;;;;;24.55;9.40;;;9.20;97.60;;;;;;5018937;28;20056;-90
2023/04/14 12:03:40;;;;;;;27.50;9.50;;;9.10;96.70;;;;;;5017579;28;20049;-91
2023/04/14 12:06:09;;;;;;;23.83;9.70;;;9.10;98.40;;;;;;5012660;28;20048;-91
2023/04/14 12:08:37;;;;;;;21.42;9.30;;;9.00;98.70;;;;;;5029541;28;20069;-91
2023/04/14 12:11:14;;;;;;;26.67;8.90;;;9.00;99.20;;;;;;5007407;28;20075;-91
2023/04/14 12:13:43;;;;;;;23.38;8.65;;;9.00;99.10;;;;;;5030960;28;20049;-93
2023/04/14 12:16:14;;;;;;;16.45;8.73;;;9.00;99.30;;;;;;4994751;28;20041;-94
2023/04/14 12:18:44;;;;;;;24.63;6.32;;;9.00;100.00;;;;;;5033355;28;20052;-94
2023/04/14 12:21:20;;;;;;;13.70;6.05;;;8.90;98.00;;;;;;5000357;28;20099;-95
2023/04/14 12:23:56;;;;;;;19.60;7.63;;;8.80;98.50;;;;;;5019960;28;20375;-95
2023/04/14 12:26:25;;;;;;;11.73;4.70;;;8.70;97.60;;;;;;5022792;28;20049;-95
2023/04/14 12:29:05;;;;;;;4.97;2.78;;;8.60;98.20;;;;;;5021738;28;20116;-94
2023/04/14 12:35:22;;;;;;;6.05;2.42;;;8.40;97.00;;;;;;5022100;28;20049;-95
2023/04/14 12:37:54;;;;;;;5.78;2.60;;;8.30;97.60;;;;;;5020608;28;20075;-94
2023/04/14 12:40:39;;;;;;;;;;;8.20;98.10;;;;;;5048509;28;20064;-95
2023/04/14 12:43:28;;;;;;;6.88;2.65;;;8.20;98.40;;;;;;5033911;28;19925;-94
2023/04/14 12:45:59;;;;;;;9.32;3.22;;;8.10;98.80;;;;;;5022733;28;20557;-94
2023/04/14 12:48:47;;;;;;;0.00;0.00;;;8.10;99.30;;;;;;5046815;28;20140;-95
2023/04/14 12:51:30;;;;;;;0.00;0.00;;;8.20;99.00;;;;;;5030549;28;20053;-95
2023/04/14 12:54:07;;;;;;;0.00;0.00;;;8.10;99.80;;;;;;5047699;28;20400;-94
2023/04/14 12:56:41;;;;;;;0.00;0.00;;;8.10;99.70;;;;;;5047746;28;20094;-94
2023/04/14 12:59:15;;;;;;;0.00;0.00;;;8.00;98.40;;;;;;5049336;28;20488;-93
2023/04/14 13:01:45;;;;;;;0.00;0.00;;;8.00;99.90;;;;;;5034548;28;20435;-95
2023/04/14 13:04:15;;;;;;;0.00;0.00;;;7.90;99.10;;;;;;5027801;28;20090;-94